sensor_id;sensor_type;location;lat;lon;timestamp;temperature;humidity
30399;DHT22;17195;50.838;7.214;2022-07-04T00:00:53;15.80;99.90
30399;DHT22;17195;50.838;7.214;2022-07-04T00:03:18;15.80;99.90
30399;DHT22;17195;50.838;7.214;2022-07-04T00:05:44;15.70;99.90
30399;DHT22;17195;50.838;7.214;2022-07-04T00:08:09;15.70;99.90
30399;DHT22;17195;50.838;7.214;2022-07-04T00:10:35;15.60;99.90
30399;DHT22;17195;50.838;7.214;2022-07-04T00:13:00;15.50;99.90
30399;DHT22;17195;50.838;7.214;2022-07-04T00:15:26;15.40;99.90
30399;DHT22;17195;50.838;7.214;2022-07-04T00:17:52;15.40;99.90
30399;DHT22;17195;50.838;7.214;2022-07-04T00:20:18;15.30;99.90
30399;DHT22;17195;50.838;7.214;2022-07-04T00:22:44;15.20;99.90
30399;DHT22;17195;50.838;7.214;2022-07-04T00:25:10;15.20;99.90
30399;DHT22;17195;50.838;7.214;2022-07-04T00:27:35;15.10;99.90
30399;DHT22;17195;50.838;7.214;2022-07-04T00:30:02;15.00;99.90
30399;DHT22;17195;50.838;7.214;2022-07-04T00:32:28;15.00;99.90
30399;DHT22;17195;50.838;7.214;2022-07-04T00:34:54;15.00;99.90
30399;DHT22;17195;50.838;7.214;2022-07-04T00:37:19;14.90;99.90
30399;DHT22;17195;50.838;7.214;2022-07-04T00:39:45;14.80;99.90
30399;DHT22;17195;50.838;7.214;2022-07-04T00:42:10;14.80;99.90
30399;DHT22;17195;50.838;7.214;2022-07-04T00:44:36;14.70;99.90
30399;DHT22;17195;50.838;7.214;2022-07-04T00:47:03;14.70;99.90
30399;DHT22;17195;50.838;7.214;2022-07-04T00:49:29;14.70;99.90
30399;DHT22;17195;50.838;7.214;2022-07-04T00:51:55;14.60;99.90
30399;DHT22;17195;50.838;7.214;2022-07-04T00:54:25;14.60;99.90
30399;DHT22;17195;50.838;7.214;2022-07-04T00:56:52;14.50;99.90
30399;DHT22;17195;50.838;7.214;2022-07-04T00:59:17;14.50;99.90
30399;DHT22;17195;50.838;7.214;2022-07-04T01:01:43;14.40;99.90
30399;DHT22;17195;50.838;7.214;2022-07-04T01:04:09;14.30;99.90
30399;DHT22;17195;50.838;7.214;2022-07-04T01:06:35;14.30;99.90
30399;DHT22;17195;50.838;7.214;2022-07-04T01:09:01;14.20;99.90
30399;DHT22;17195;50.838;7.214;2022-07-04T01:11:26;14.20;99.90
30399;DHT22;17195;50.838;7.214;2022-07-04T01:13:55;14.20;99.90
30399;DHT22;17195;50.838;7.214;2022-07-04T01:16:21;14.10;99.90
30399;DHT22;17195;50.838;7.214;2022-07-04T01:18:49;14.00;99.90
30399;DHT22;17195;50.838;7.214;2022-07-04T01:21:17;14.00;99.90
30399;DHT22;17195;50.838;7.214;2022-07-04T01:23:43;13.90;99.90
30399;DHT22;17195;50.838;7.214;2022-07-04T01:26:08;13.90;99.90
30399;DHT22;17195;50.838;7.214;2022-07-04T01:28:34;13.80;99.90
30399;DHT22;17195;50.838;7.214;2022-07-04T01:31:00;13.80;99.90
30399;DHT22;17195;50.838;7.214;2022-07-04T01:33:26;13.70;99.90
30399;DHT22;17195;50.838;7.214;2022-07-04T01:35:51;13.70;99.90
30399;DHT22;17195;50.838;7.214;2022-07-04T01:38:17;13.60;99.90
30399;DHT22;17195;50.838;7.214;2022-07-04T01:40:43;13.60;99.90
30399;DHT22;17195;50.838;7.214;2022-07-04T01:43:08;13.60;99.90
30399;DHT22;17195;50.838;7.214;2022-07-04T01:45:34;13.50;99.90
30399;DHT22;17195;50.838;7.214;2022-07-04T01:48:04;13.50;99.90
30399;DHT22;17195;50.838;7.214;2022-07-04T01:50:30;13.40;99.90
30399;DHT22;17195;50.838;7.214;2022-07-04T01:52:56;13.30;99.90
30399;DHT22;17195;50.838;7.214;2022-07-04T01:55:21;13.30;99.90
30399;DHT22;17195;50.838;7.214;2022-07-04T01:57:47;13.30;99.90
30399;DHT22;17195;50.838;7.214;2022-07-04T02:00:12;13.20;99.90
30399;DHT22;17195;50.838;7.214;2022-07-04T02:02:57;13.20;99.90
30399;DHT22;17195;50.838;7.214;2022-07-04T02:05:23;13.10;99.90
30399;DHT22;17195;50.838;7.214;2022-07-04T02:07:49;13.10;99.90
30399;DHT22;17195;50.838;7.214;2022-07-04T02:10:14;13.00;99.90
30399;DHT22;17195;50.838;7.214;2022-07-04T02:12:40;13.00;99.90
30399;DHT22;17195;50.838;7.214;2022-07-04T02:15:24;12.90;99.90
30399;DHT22;17195;50.838;7.214;2022-07-04T02:17:50;12.90;99.90
30399;DHT22;17195;50.838;7.214;2022-07-04T02:20:16;12.90;99.90
30399;DHT22;17195;50.838;7.214;2022-07-04T02:22:41;12.80;99.90
30399;DHT22;17195;50.838;7.214;2022-07-04T02:25:07;12.80;99.90
30399;DHT22;17195;50.838;7.214;2022-07-04T02:27:33;12.70;99.90
30399;DHT22;17195;50.838;7.214;2022-07-04T02:29:58;12.70;99.90
30399;DHT22;17195;50.838;7.214;2022-07-04T02:32:24;12.70;99.90
30399;DHT22;17195;50.838;7.214;2022-07-04T02:34:50;12.60;99.90
30399;DHT22;17195;50.838;7.214;2022-07-04T02:37:15;12.60;99.90
30399;DHT22;17195;50.838;7.214;2022-07-04T02:39:41;12.50;99.90
30399;DHT22;17195;50.838;7.214;2022-07-04T02:42:06;12.50;99.90
30399;DHT22;17195;50.838;7.214;2022-07-04T02:44:32;12.50;99.90
30399;DHT22;17195;50.838;7.214;2022-07-04T02:46:58;12.50;99.90
30399;DHT22;17195;50.838;7.214;2022-07-04T02:49:24;12.40;99.90
30399;DHT22;17195;50.838;7.214;2022-07-04T02:51:49;12.40;99.90
30399;DHT22;17195;50.838;7.214;2022-07-04T02:54:15;12.30;99.90
30399;DHT22;17195;50.838;7.214;2022-07-04T02:56:41;12.30;99.90
30399;DHT22;17195;50.838;7.214;2022-07-04T02:59:07;12.20;99.90
30399;DHT22;17195;50.838;7.214;2022-07-04T03:01:33;12.20;99.90
30399;DHT22;17195;50.838;7.214;2022-07-04T03:03:59;12.20;99.90
30399;DHT22;17195;50.838;7.214;2022-07-04T03:06:24;12.20;99.90
30399;DHT22;17195;50.838;7.214;2022-07-04T03:08:50;12.20;99.90
30399;DHT22;17195;50.838;7.214;2022-07-04T03:11:18;12.10;99.90
30399;DHT22;17195;50.838;7.214;2022-07-04T03:13:43;12.10;99.90
30399;DHT22;17195;50.838;7.214;2022-07-04T03:16:09;12.00;99.90
30399;DHT22;17195;50.838;7.214;2022-07-04T03:18:35;12.00;99.90
30399;DHT22;17195;50.838;7.214;2022-07-04T03:21:01;12.00;99.90
30399;DHT22;17195;50.838;7.214;2022-07-04T03:23:30;12.00;99.90
30399;DHT22;17195;50.838;7.214;2022-07-04T03:25:56;12.00;99.90
30399;DHT22;17195;50.838;7.214;2022-07-04T03:28:21;12.00;99.90
30399;DHT22;17195;50.838;7.214;2022-07-04T03:30:47;11.90;99.90
30399;DHT22;17195;50.838;7.214;2022-07-04T03:33:13;12.00;99.90
30399;DHT22;17195;50.838;7.214;2022-07-04T03:35:38;12.00;99.90
30399;DHT22;17195;50.838;7.214;2022-07-04T03:38:04;11.90;99.90
30399;DHT22;17195;50.838;7.214;2022-07-04T03:40:29;11.90;99.90
30399;DHT22;17195;50.838;7.214;2022-07-04T03:42:57;11.90;99.90
30399;DHT22;17195;50.838;7.214;2022-07-04T03:45:23;11.90;99.90
30399;DHT22;17195;50.838;7.214;2022-07-04T03:47:49;11.90;99.90
30399;DHT22;17195;50.838;7.214;2022-07-04T03:50:15;11.90;99.90
30399;DHT22;17195;50.838;7.214;2022-07-04T03:52:40;11.90;99.90
30399;DHT22;17195;50.838;7.214;2022-07-04T03:55:06;11.90;99.90
30399;DHT22;17195;50.838;7.214;2022-07-04T03:57:32;11.90;99.90
30399;DHT22;17195;50.838;7.214;2022-07-04T03:59:58;11.90;99.90
30399;DHT22;17195;50.838;7.214;2022-07-04T04:02:23;11.90;99.90
30399;DHT22;17195;50.838;7.214;2022-07-04T04:04:49;11.90;99.90
30399;DHT22;17195;50.838;7.214;2022-07-04T04:07:33;11.90;99.90
30399;DHT22;17195;50.838;7.214;2022-07-04T04:09:59;12.00;99.90
30399;DHT22;17195;50.838;7.214;2022-07-04T04:12:24;12.00;99.90
30399;DHT22;17195;50.838;7.214;2022-07-04T04:14:50;12.10;99.90
30399;DHT22;17195;50.838;7.214;2022-07-04T04:17:15;12.10;99.90
30399;DHT22;17195;50.838;7.214;2022-07-04T04:19:41;12.10;99.90
30399;DHT22;17195;50.838;7.214;2022-07-04T04:22:06;12.10;99.90
30399;DHT22;17195;50.838;7.214;2022-07-04T04:24:32;12.20;99.90
30399;DHT22;17195;50.838;7.214;2022-07-04T04:26:57;12.20;99.90
30399;DHT22;17195;50.838;7.214;2022-07-04T04:29:23;12.30;99.90
30399;DHT22;17195;50.838;7.214;2022-07-04T04:31:48;12.30;99.90
30399;DHT22;17195;50.838;7.214;2022-07-04T04:34:14;12.40;99.90
30399;DHT22;17195;50.838;7.214;2022-07-04T04:36:39;12.40;99.90
30399;DHT22;17195;50.838;7.214;2022-07-04T04:39:05;12.50;99.90
30399;DHT22;17195;50.838;7.214;2022-07-04T04:41:30;12.60;99.90
30399;DHT22;17195;50.838;7.214;2022-07-04T04:43:56;12.70;99.90
30399;DHT22;17195;50.838;7.214;2022-07-04T04:46:21;12.70;99.90
30399;DHT22;17195;50.838;7.214;2022-07-04T04:48:47;12.80;99.90
30399;DHT22;17195;50.838;7.214;2022-07-04T04:51:13;12.90;99.90
30399;DHT22;17195;50.838;7.214;2022-07-04T04:53:38;13.00;99.90
30399;DHT22;17195;50.838;7.214;2022-07-04T04:56:04;13.10;99.90
30399;DHT22;17195;50.838;7.214;2022-07-04T04:58:30;13.20;99.90
30399;DHT22;17195;50.838;7.214;2022-07-04T05:00:55;13.20;99.90
30399;DHT22;17195;50.838;7.214;2022-07-04T05:03:21;13.30;99.90
30399;DHT22;17195;50.838;7.214;2022-07-04T05:05:46;13.40;99.90
30399;DHT22;17195;50.838;7.214;2022-07-04T05:08:12;13.50;99.90
30399;DHT22;17195;50.838;7.214;2022-07-04T05:10:39;13.60;99.90
30399;DHT22;17195;50.838;7.214;2022-07-04T05:13:05;13.70;99.90
30399;DHT22;17195;50.838;7.214;2022-07-04T05:15:31;13.80;99.90
30399;DHT22;17195;50.838;7.214;2022-07-04T05:17:57;13.90;99.90
30399;DHT22;17195;50.838;7.214;2022-07-04T05:20:23;13.90;99.90
30399;DHT22;17195;50.838;7.214;2022-07-04T05:22:48;14.10;99.90
30399;DHT22;17195;50.838;7.214;2022-07-04T05:25:14;14.20;99.90
30399;DHT22;17195;50.838;7.214;2022-07-04T05:27:39;14.30;99.90
30399;DHT22;17195;50.838;7.214;2022-07-04T05:30:06;14.40;99.90
30399;DHT22;17195;50.838;7.214;2022-07-04T05:32:32;14.60;99.90
30399;DHT22;17195;50.838;7.214;2022-07-04T05:34:58;14.70;99.90
30399;DHT22;17195;50.838;7.214;2022-07-04T05:37:24;14.80;99.90
30399;DHT22;17195;50.838;7.214;2022-07-04T05:39:50;14.90;99.90
30399;DHT22;17195;50.838;7.214;2022-07-04T05:42:16;15.10;99.90
30399;DHT22;17195;50.838;7.214;2022-07-04T05:44:41;15.10;99.90
30399;DHT22;17195;50.838;7.214;2022-07-04T05:47:07;15.30;99.90
30399;DHT22;17195;50.838;7.214;2022-07-04T05:49:33;15.40;99.90
30399;DHT22;17195;50.838;7.214;2022-07-04T05:51:59;15.50;99.90
30399;DHT22;17195;50.838;7.214;2022-07-04T05:54:25;15.60;99.90
30399;DHT22;17195;50.838;7.214;2022-07-04T05:56:50;15.60;99.90
30399;DHT22;17195;50.838;7.214;2022-07-04T05:59:16;15.70;99.90
30399;DHT22;17195;50.838;7.214;2022-07-04T06:01:41;15.80;99.90
30399;DHT22;17195;50.838;7.214;2022-07-04T06:04:07;15.90;99.90
30399;DHT22;17195;50.838;7.214;2022-07-04T06:06:33;16.00;99.90
30399;DHT22;17195;50.838;7.214;2022-07-04T06:08:58;16.10;99.90
30399;DHT22;17195;50.838;7.214;2022-07-04T06:11:24;16.10;99.90
30399;DHT22;17195;50.838;7.214;2022-07-04T06:13:50;16.20;99.90
30399;DHT22;17195;50.838;7.214;2022-07-04T06:16:16;16.40;99.90
30399;DHT22;17195;50.838;7.214;2022-07-04T06:18:42;16.50;99.90
30399;DHT22;17195;50.838;7.214;2022-07-04T06:21:08;16.60;99.90
30399;DHT22;17195;50.838;7.214;2022-07-04T06:23:34;16.70;99.90
30399;DHT22;17195;50.838;7.214;2022-07-04T06:26:00;16.70;99.90
30399;DHT22;17195;50.838;7.214;2022-07-04T06:28:26;16.90;99.90
30399;DHT22;17195;50.838;7.214;2022-07-04T06:30:51;17.00;99.90
30399;DHT22;17195;50.838;7.214;2022-07-04T06:33:17;17.10;99.90
30399;DHT22;17195;50.838;7.214;2022-07-04T06:35:44;17.10;99.90
30399;DHT22;17195;50.838;7.214;2022-07-04T06:38:29;17.10;99.90
30399;DHT22;17195;50.838;7.214;2022-07-04T06:40:57;17.20;99.90
30399;DHT22;17195;50.838;7.214;2022-07-04T06:43:23;17.30;99.90
30399;DHT22;17195;50.838;7.214;2022-07-04T06:45:49;17.40;99.90
30399;DHT22;17195;50.838;7.214;2022-07-04T06:48:14;17.50;99.90
30399;DHT22;17195;50.838;7.214;2022-07-04T06:50:40;17.60;99.90
30399;DHT22;17195;50.838;7.214;2022-07-04T06:53:07;17.70;99.90
30399;DHT22;17195;50.838;7.214;2022-07-04T06:55:34;17.60;99.90
30399;DHT22;17195;50.838;7.214;2022-07-04T06:58:00;17.50;99.90
30399;DHT22;17195;50.838;7.214;2022-07-04T07:00:26;17.60;99.90
30399;DHT22;17195;50.838;7.214;2022-07-04T07:02:52;17.60;99.90
30399;DHT22;17195;50.838;7.214;2022-07-04T07:05:17;17.80;99.90
30399;DHT22;17195;50.838;7.214;2022-07-04T07:07:43;17.90;99.90
30399;DHT22;17195;50.838;7.214;2022-07-04T07:10:08;18.00;99.90
30399;DHT22;17195;50.838;7.214;2022-07-04T07:12:34;18.00;99.90
30399;DHT22;17195;50.838;7.214;2022-07-04T07:15:00;18.10;99.90
30399;DHT22;17195;50.838;7.214;2022-07-04T07:17:27;18.20;99.90
30399;DHT22;17195;50.838;7.214;2022-07-04T07:19:53;18.30;99.90
30399;DHT22;17195;50.838;7.214;2022-07-04T07:22:19;18.40;99.90
30399;DHT22;17195;50.838;7.214;2022-07-04T07:24:44;18.50;99.90
30399;DHT22;17195;50.838;7.214;2022-07-04T07:27:10;18.50;99.90
30399;DHT22;17195;50.838;7.214;2022-07-04T07:29:37;18.50;99.90
30399;DHT22;17195;50.838;7.214;2022-07-04T07:32:04;18.60;99.90
30399;DHT22;17195;50.838;7.214;2022-07-04T07:34:29;18.60;99.90
30399;DHT22;17195;50.838;7.214;2022-07-04T07:36:55;18.60;99.90
30399;DHT22;17195;50.838;7.214;2022-07-04T07:39:21;18.70;99.90
30399;DHT22;17195;50.838;7.214;2022-07-04T07:41:47;18.70;99.90
30399;DHT22;17195;50.838;7.214;2022-07-04T07:44:13;18.80;99.90
30399;DHT22;17195;50.838;7.214;2022-07-04T07:46:39;18.90;99.90
30399;DHT22;17195;50.838;7.214;2022-07-04T07:49:04;19.00;99.90
30399;DHT22;17195;50.838;7.214;2022-07-04T07:51:30;19.00;99.90
30399;DHT22;17195;50.838;7.214;2022-07-04T07:53:56;19.20;99.90
30399;DHT22;17195;50.838;7.214;2022-07-04T07:56:22;19.20;99.90
30399;DHT22;17195;50.838;7.214;2022-07-04T07:58:49;19.40;99.90
30399;DHT22;17195;50.838;7.214;2022-07-04T08:01:15;19.40;99.90
30399;DHT22;17195;50.838;7.214;2022-07-04T08:03:40;19.40;99.90
30399;DHT22;17195;50.838;7.214;2022-07-04T08:06:24;19.60;99.90
30399;DHT22;17195;50.838;7.214;2022-07-04T08:08:50;19.70;99.90
30399;DHT22;17195;50.838;7.214;2022-07-04T08:11:16;19.80;99.90
30399;DHT22;17195;50.838;7.214;2022-07-04T08:13:42;19.80;99.90
30399;DHT22;17195;50.838;7.214;2022-07-04T08:16:08;19.90;99.90
30399;DHT22;17195;50.838;7.214;2022-07-04T08:18:33;19.90;99.90
30399;DHT22;17195;50.838;7.214;2022-07-04T08:20:59;20.00;99.90
30399;DHT22;17195;50.838;7.214;2022-07-04T08:23:25;20.00;99.90
30399;DHT22;17195;50.838;7.214;2022-07-04T08:25:51;20.00;99.90
30399;DHT22;17195;50.838;7.214;2022-07-04T08:28:16;20.00;98.60
30399;DHT22;17195;50.838;7.214;2022-07-04T08:30:42;20.10;98.80
30399;DHT22;17195;50.838;7.214;2022-07-04T08:33:07;20.10;97.50
30399;DHT22;17195;50.838;7.214;2022-07-04T08:35:33;20.10;98.00
30399;DHT22;17195;50.838;7.214;2022-07-04T08:37:59;20.10;97.30
30399;DHT22;17195;50.838;7.214;2022-07-04T08:40:30;20.20;97.00
30399;DHT22;17195;50.838;7.214;2022-07-04T08:42:55;20.20;96.20
30399;DHT22;17195;50.838;7.214;2022-07-04T08:45:30;20.20;95.40
30399;DHT22;17195;50.838;7.214;2022-07-04T08:48:01;20.20;95.50
30399;DHT22;17195;50.838;7.214;2022-07-04T08:50:32;20.30;95.10
30399;DHT22;17195;50.838;7.214;2022-07-04T08:53:17;20.40;93.80
30399;DHT22;17195;50.838;7.214;2022-07-04T08:55:45;20.50;94.00
30399;DHT22;17195;50.838;7.214;2022-07-04T08:58:30;20.60;95.30
30399;DHT22;17195;50.838;7.214;2022-07-04T09:01:05;20.70;95.50
30399;DHT22;17195;50.838;7.214;2022-07-04T09:03:31;20.70;94.40
30399;DHT22;17195;50.838;7.214;2022-07-04T09:05:58;20.80;94.70
30399;DHT22;17195;50.838;7.214;2022-07-04T09:08:24;20.90;94.90
30399;DHT22;17195;50.838;7.214;2022-07-04T09:10:52;21.00;94.30
30399;DHT22;17195;50.838;7.214;2022-07-04T09:13:18;21.00;94.10
30399;DHT22;17195;50.838;7.214;2022-07-04T09:15:49;21.00;94.20
30399;DHT22;17195;50.838;7.214;2022-07-04T09:18:30;21.00;93.90
30399;DHT22;17195;50.838;7.214;2022-07-04T09:20:58;21.10;93.40
30399;DHT22;17195;50.838;7.214;2022-07-04T09:23:30;21.20;93.30
30399;DHT22;17195;50.838;7.214;2022-07-04T09:26:17;21.10;92.40
30399;DHT22;17195;50.838;7.214;2022-07-04T09:28:44;21.20;91.50
30399;DHT22;17195;50.838;7.214;2022-07-04T09:31:21;21.30;90.80
30399;DHT22;17195;50.838;7.214;2022-07-04T09:33:54;21.30;91.00
30399;DHT22;17195;50.838;7.214;2022-07-04T09:36:23;21.40;90.30
30399;DHT22;17195;50.838;7.214;2022-07-04T09:41:51;21.60;90.30
30399;DHT22;17195;50.838;7.214;2022-07-04T09:44:18;21.70;90.40
30399;DHT22;17195;50.838;7.214;2022-07-04T09:46:43;21.70;89.70
30399;DHT22;17195;50.838;7.214;2022-07-04T09:49:10;21.80;88.60
30399;DHT22;17195;50.838;7.214;2022-07-04T09:51:48;21.90;88.50
30399;DHT22;17195;50.838;7.214;2022-07-04T09:54:27;22.00;86.70
30399;DHT22;17195;50.838;7.214;2022-07-04T09:56:56;22.10;86.90
30399;DHT22;17195;50.838;7.214;2022-07-04T09:59:23;22.20;87.20
30399;DHT22;17195;50.838;7.214;2022-07-04T10:01:49;22.30;85.30
30399;DHT22;17195;50.838;7.214;2022-07-04T10:04:15;22.30;85.10
30399;DHT22;17195;50.838;7.214;2022-07-04T10:06:43;22.50;85.00
30399;DHT22;17195;50.838;7.214;2022-07-04T10:09:14;22.70;83.30
30399;DHT22;17195;50.838;7.214;2022-07-04T10:11:41;22.70;82.20
30399;DHT22;17195;50.838;7.214;2022-07-04T10:14:09;22.60;80.90
30399;DHT22;17195;50.838;7.214;2022-07-04T10:16:36;22.50;78.60
30399;DHT22;17195;50.838;7.214;2022-07-04T10:19:03;22.50;79.00
30399;DHT22;17195;50.838;7.214;2022-07-04T10:21:29;22.50;79.40
30399;DHT22;17195;50.838;7.214;2022-07-04T10:23:55;22.70;80.60
30399;DHT22;17195;50.838;7.214;2022-07-04T10:26:21;22.90;79.30
30399;DHT22;17195;50.838;7.214;2022-07-04T10:28:49;23.10;79.70
30399;DHT22;17195;50.838;7.214;2022-07-04T10:31:16;23.10;78.00
30399;DHT22;17195;50.838;7.214;2022-07-04T10:33:43;23.20;75.70
30399;DHT22;17195;50.838;7.214;2022-07-04T10:36:19;23.10;76.00
30399;DHT22;17195;50.838;7.214;2022-07-04T10:38:53;23.10;76.20
30399;DHT22;17195;50.838;7.214;2022-07-04T10:41:21;23.10;76.70
30399;DHT22;17195;50.838;7.214;2022-07-04T10:49:03;23.10;77.80
30399;DHT22;17195;50.838;7.214;2022-07-04T10:51:53;23.20;75.20
30399;DHT22;17195;50.838;7.214;2022-07-04T10:56:52;23.40;71.70
30399;DHT22;17195;50.838;7.214;2022-07-04T10:59:21;23.50;71.30
30399;DHT22;17195;50.838;7.214;2022-07-04T11:01:52;23.60;71.80
30399;DHT22;17195;50.838;7.214;2022-07-04T11:04:51;23.80;71.70
30399;DHT22;17195;50.838;7.214;2022-07-04T11:13:03;23.80;67.80
30399;DHT22;17195;50.838;7.214;2022-07-04T11:20:25;24.20;67.90
30399;DHT22;17195;50.838;7.214;2022-07-04T11:22:51;24.20;70.00
30399;DHT22;17195;50.838;7.214;2022-07-04T11:25:16;24.00;68.20
30399;DHT22;17195;50.838;7.214;2022-07-04T11:27:42;23.90;68.40
30399;DHT22;17195;50.838;7.214;2022-07-04T11:30:09;24.10;68.60
30399;DHT22;17195;50.838;7.214;2022-07-04T11:32:37;24.30;69.10
30399;DHT22;17195;50.838;7.214;2022-07-04T11:35:04;24.60;69.00
30399;DHT22;17195;50.838;7.214;2022-07-04T11:37:31;24.60;68.10
30399;DHT22;17195;50.838;7.214;2022-07-04T11:39:57;24.40;68.20
30399;DHT22;17195;50.838;7.214;2022-07-04T11:43:04;24.60;68.40
30399;DHT22;17195;50.838;7.214;2022-07-04T11:45:48;24.90;67.60
30399;DHT22;17195;50.838;7.214;2022-07-04T11:48:27;25.10;66.70
30399;DHT22;17195;50.838;7.214;2022-07-04T11:50:53;25.40;65.70
30399;DHT22;17195;50.838;7.214;2022-07-04T11:53:19;25.40;66.00
30399;DHT22;17195;50.838;7.214;2022-07-04T11:55:52;25.80;64.20
30399;DHT22;17195;50.838;7.214;2022-07-04T11:58:18;26.10;63.80
30399;DHT22;17195;50.838;7.214;2022-07-04T12:00:44;26.00;62.00
30399;DHT22;17195;50.838;7.214;2022-07-04T12:03:09;25.90;64.80
30399;DHT22;17195;50.838;7.214;2022-07-04T12:05:35;26.00;62.40
30399;DHT22;17195;50.838;7.214;2022-07-04T12:08:02;26.00;61.80
30399;DHT22;17195;50.838;7.214;2022-07-04T12:10:29;25.90;62.80
30399;DHT22;17195;50.838;7.214;2022-07-04T12:13:10;25.80;63.10
30399;DHT22;17195;50.838;7.214;2022-07-04T12:15:45;25.90;64.20
30399;DHT22;17195;50.838;7.214;2022-07-04T12:18:17;26.20;60.40
30399;DHT22;17195;50.838;7.214;2022-07-04T12:20:43;26.50;60.00
30399;DHT22;17195;50.838;7.214;2022-07-04T12:23:09;26.40;59.40
30399;DHT22;17195;50.838;7.214;2022-07-04T12:25:37;26.60;61.10
30399;DHT22;17195;50.838;7.214;2022-07-04T12:28:08;26.90;60.40
30399;DHT22;17195;50.838;7.214;2022-07-04T12:30:36;27.20;60.00
30399;DHT22;17195;50.838;7.214;2022-07-04T12:33:08;27.30;59.20
30399;DHT22;17195;50.838;7.214;2022-07-04T12:35:42;26.90;58.60
30399;DHT22;17195;50.838;7.214;2022-07-04T12:41:07;26.40;60.90
30399;DHT22;17195;50.838;7.214;2022-07-04T12:48:50;26.90;57.80
30399;DHT22;17195;50.838;7.214;2022-07-04T12:53:47;27.20;57.10
30399;DHT22;17195;50.838;7.214;2022-07-04T12:56:29;27.40;57.20
30399;DHT22;17195;50.838;7.214;2022-07-04T12:58:57;27.30;56.70
30399;DHT22;17195;50.838;7.214;2022-07-04T13:01:23;27.70;57.70
30399;DHT22;17195;50.838;7.214;2022-07-04T13:03:48;28.10;56.80
30399;DHT22;17195;50.838;7.214;2022-07-04T13:06:14;28.40;55.20
30399;DHT22;17195;50.838;7.214;2022-07-04T13:08:39;28.40;54.50
30399;DHT22;17195;50.838;7.214;2022-07-04T13:11:05;28.10;54.10
30399;DHT22;17195;50.838;7.214;2022-07-04T13:13:49;27.90;55.50
30399;DHT22;17195;50.838;7.214;2022-07-04T13:16:15;27.90;54.90
30399;DHT22;17195;50.838;7.214;2022-07-04T13:18:40;27.80;54.10
30399;DHT22;17195;50.838;7.214;2022-07-04T13:21:06;27.90;54.90
30399;DHT22;17195;50.838;7.214;2022-07-04T13:23:32;28.00;52.80
30399;DHT22;17195;50.838;7.214;2022-07-04T13:25:57;28.10;52.90
30399;DHT22;17195;50.838;7.214;2022-07-04T13:28:23;28.60;53.40
30399;DHT22;17195;50.838;7.214;2022-07-04T13:30:48;28.80;51.40
30399;DHT22;17195;50.838;7.214;2022-07-04T13:33:14;29.00;52.70
30399;DHT22;17195;50.838;7.214;2022-07-04T13:35:41;29.00;52.20
30399;DHT22;17195;50.838;7.214;2022-07-04T13:38:06;29.40;52.40
30399;DHT22;17195;50.838;7.214;2022-07-04T13:40:32;29.10;50.80
30399;DHT22;17195;50.838;7.214;2022-07-04T13:42:57;29.10;52.20
30399;DHT22;17195;50.838;7.214;2022-07-04T13:45:23;29.00;51.90
30399;DHT22;17195;50.838;7.214;2022-07-04T13:47:49;28.90;51.00
30399;DHT22;17195;50.838;7.214;2022-07-04T13:50:14;28.70;52.50
30399;DHT22;17195;50.838;7.214;2022-07-04T13:52:40;28.50;51.60
30399;DHT22;17195;50.838;7.214;2022-07-04T13:55:06;28.50;51.60
30399;DHT22;17195;50.838;7.214;2022-07-04T13:57:31;28.40;51.80
30399;DHT22;17195;50.838;7.214;2022-07-04T13:59:57;28.60;51.90
30399;DHT22;17195;50.838;7.214;2022-07-04T14:02:23;28.50;51.70
30399;DHT22;17195;50.838;7.214;2022-07-04T14:04:48;28.60;52.60
30399;DHT22;17195;50.838;7.214;2022-07-04T14:07:14;28.60;52.10
30399;DHT22;17195;50.838;7.214;2022-07-04T14:09:39;28.70;51.00
30399;DHT22;17195;50.838;7.214;2022-07-04T14:12:05;28.60;51.10
30399;DHT22;17195;50.838;7.214;2022-07-04T14:14:31;28.50;50.80
30399;DHT22;17195;50.838;7.214;2022-07-04T14:16:56;28.60;52.00
30399;DHT22;17195;50.838;7.214;2022-07-04T14:19:22;28.70;50.80
30399;DHT22;17195;50.838;7.214;2022-07-04T14:21:47;28.70;50.80
30399;DHT22;17195;50.838;7.214;2022-07-04T14:24:14;28.50;50.90
30399;DHT22;17195;50.838;7.214;2022-07-04T14:26:41;28.30;50.90
30399;DHT22;17195;50.838;7.214;2022-07-04T14:29:07;28.10;50.60
30399;DHT22;17195;50.838;7.214;2022-07-04T14:31:32;27.90;51.10
30399;DHT22;17195;50.838;7.214;2022-07-04T14:33:58;27.70;51.60
30399;DHT22;17195;50.838;7.214;2022-07-04T14:36:24;27.50;52.90
30399;DHT22;17195;50.838;7.214;2022-07-04T14:38:49;27.60;53.40
30399;DHT22;17195;50.838;7.214;2022-07-04T14:41:15;27.80;51.80
30399;DHT22;17195;50.838;7.214;2022-07-04T14:43:42;28.00;51.10
30399;DHT22;17195;50.838;7.214;2022-07-04T14:46:08;28.40;50.90
30399;DHT22;17195;50.838;7.214;2022-07-04T14:48:34;29.00;49.90
30399;DHT22;17195;50.838;7.214;2022-07-04T14:51:00;29.50;49.40
30399;DHT22;17195;50.838;7.214;2022-07-04T14:53:26;30.00;49.40
30399;DHT22;17195;50.838;7.214;2022-07-04T14:55:52;30.80;47.70
30399;DHT22;17195;50.838;7.214;2022-07-04T14:58:17;31.50;47.20
30399;DHT22;17195;50.838;7.214;2022-07-04T15:00:44;31.90;45.50
30399;DHT22;17195;50.838;7.214;2022-07-04T15:03:09;32.30;45.70
30399;DHT22;17195;50.838;7.214;2022-07-04T15:05:35;33.00;44.80
30399;DHT22;17195;50.838;7.214;2022-07-04T15:08:00;33.50;43.00
30399;DHT22;17195;50.838;7.214;2022-07-04T15:10:26;33.90;42.60
30399;DHT22;17195;50.838;7.214;2022-07-04T15:12:51;34.60;41.40
30399;DHT22;17195;50.838;7.214;2022-07-04T15:15:17;35.10;40.40
30399;DHT22;17195;50.838;7.214;2022-07-04T15:17:42;35.60;39.70
30399;DHT22;17195;50.838;7.214;2022-07-04T15:20:09;35.70;38.60
30399;DHT22;17195;50.838;7.214;2022-07-04T15:22:53;36.10;38.10
30399;DHT22;17195;50.838;7.214;2022-07-04T15:25:38;39.30;35.90
30399;DHT22;17195;50.838;7.214;2022-07-04T15:28:03;41.80;31.50
30399;DHT22;17195;50.838;7.214;2022-07-04T15:30:29;43.80;29.10
30399;DHT22;17195;50.838;7.214;2022-07-04T15:32:55;45.90;27.40
30399;DHT22;17195;50.838;7.214;2022-07-04T15:35:20;47.50;25.10
30399;DHT22;17195;50.838;7.214;2022-07-04T15:37:46;49.20;22.90
30399;DHT22;17195;50.838;7.214;2022-07-04T15:40:11;50.50;21.60
30399;DHT22;17195;50.838;7.214;2022-07-04T15:42:37;51.30;20.20
30399;DHT22;17195;50.838;7.214;2022-07-04T15:45:03;51.40;19.50
30399;DHT22;17195;50.838;7.214;2022-07-04T15:47:28;49.00;20.00
30399;DHT22;17195;50.838;7.214;2022-07-04T15:49:54;46.00;20.40
30399;DHT22;17195;50.838;7.214;2022-07-04T15:52:20;46.40;20.70
30399;DHT22;17195;50.838;7.214;2022-07-04T15:54:48;47.20;20.50
30399;DHT22;17195;50.838;7.214;2022-07-04T15:57:13;47.20;20.30
30399;DHT22;17195;50.838;7.214;2022-07-04T15:59:39;48.50;19.90
30399;DHT22;17195;50.838;7.214;2022-07-04T16:02:05;50.40;19.00